createdAt,value
2018-02-16T00:02:10.812Z,57.00
2018-02-16T00:04:39.046Z,57.10
2018-02-16T00:07:07.323Z,56.90
2018-02-16T00:09:35.564Z,56.90
2018-02-16T00:12:03.942Z,56.80
2018-02-16T00:14:32.182Z,56.70
2018-02-16T00:17:01.318Z,56.60
2018-02-16T00:19:29.733Z,56.50
2018-02-16T00:21:57.989Z,56.20
2018-02-16T00:24:26.245Z,56.10
2018-02-16T00:26:55.264Z,56.50
2018-02-16T00:29:23.517Z,56.10
2018-02-16T00:31:51.790Z,55.90
2018-02-16T00:34:20.005Z,55.90
2018-02-16T00:36:48.288Z,55.90
2018-02-16T00:39:16.517Z,55.90
2018-02-16T00:41:44.909Z,56.10
2018-02-16T00:44:13.147Z,55.70
2018-02-16T00:46:41.376Z,55.80
2018-02-16T00:49:09.632Z,55.70
2018-02-16T00:51:38.672Z,55.60
2018-02-16T00:54:07.018Z,55.50
2018-02-16T00:56:35.285Z,55.70
2018-02-16T00:59:04.305Z,55.90
2018-02-16T01:01:32.640Z,55.80
2018-02-16T01:04:01.662Z,55.50
2018-02-16T01:06:30.017Z,55.40
2018-02-16T01:08:59.085Z,55.80
2018-02-16T01:11:27.417Z,55.30
2018-02-16T01:13:55.670Z,55.30
2018-02-16T01:16:23.965Z,55.40
2018-02-16T01:18:52.236Z,55.50
2018-02-16T01:21:21.384Z,55.60
2018-02-16T01:23:49.709Z,55.60
2018-02-16T01:26:17.981Z,55.40
2018-02-16T01:28:46.208Z,55.70
2018-02-16T01:31:14.468Z,55.50
2018-02-16T01:33:42.868Z,55.50
2018-02-16T01:36:11.177Z,55.70
2018-02-16T01:38:39.396Z,55.70
2018-02-16T01:41:07.725Z,55.60
2018-02-16T01:43:36.925Z,55.70
2018-02-16T01:46:05.136Z,55.70
2018-02-16T01:48:33.398Z,55.60
2018-02-16T01:51:01.653Z,55.80
2018-02-16T01:53:29.948Z,55.70
2018-02-16T01:55:58.956Z,56.00
2018-02-16T01:58:27.222Z,55.80
2018-02-16T02:00:55.457Z,55.80
2018-02-16T02:03:23.705Z,55.60
2018-02-16T02:05:51.981Z,55.70
2018-02-16T02:08:20.277Z,56.00
2018-02-16T02:10:48.580Z,56.20
2018-02-16T02:13:16.810Z,56.20
2018-02-16T02:15:45.258Z,56.10
2018-02-16T02:18:13.612Z,56.40
2018-02-16T02:20:41.869Z,56.30
2018-02-16T02:23:10.138Z,56.00
2018-02-16T02:25:38.405Z,56.10
2018-02-16T02:28:06.677Z,56.20
2018-02-16T02:30:34.930Z,56.00
2018-02-16T02:33:03.220Z,56.20
2018-02-16T02:35:31.756Z,56.30
2018-02-16T02:37:59.988Z,56.30
2018-02-16T02:40:28.267Z,56.30
2018-02-16T02:42:56.553Z,56.20
2018-02-16T02:45:24.810Z,56.10
2018-02-16T02:47:53.077Z,56.20
2018-02-16T02:50:21.318Z,56.30
2018-02-16T02:52:50.345Z,56.10
2018-02-16T02:55:19.749Z,55.90
2018-02-16T02:57:48.009Z,56.20
2018-02-16T03:00:16.317Z,56.10
2018-02-16T03:02:45.392Z,56.30
2018-02-16T03:05:13.657Z,56.10
2018-02-16T03:07:41.909Z,56.30
2018-02-16T03:10:11.029Z,56.30
2018-02-16T03:12:39.334Z,56.20
2018-02-16T03:15:07.577Z,56.00
2018-02-16T03:17:35.844Z,56.20
2018-02-16T03:20:04.128Z,56.20
2018-02-16T03:22:32.517Z,56.20
2018-02-16T03:25:01.688Z,56.40
2018-02-16T03:27:29.977Z,56.30
2018-02-16T03:29:59.133Z,56.20
2018-02-16T03:32:27.392Z,56.10
2018-02-16T03:34:55.637Z,56.30
2018-02-16T03:37:23.881Z,56.30
2018-02-16T03:39:52.912Z,56.40
2018-02-16T03:42:21.166Z,56.20
2018-02-16T03:44:49.427Z,56.10
2018-02-16T03:47:18.150Z,56.00
2018-02-16T03:49:46.626Z,56.00
2018-02-16T03:52:14.920Z,56.00
2018-02-16T03:54:43.263Z,56.30
2018-02-16T03:57:11.488Z,56.10
2018-02-16T03:59:40.014Z,56.20
2018-02-16T04:02:08.264Z,56.10
2018-02-16T04:04:36.510Z,56.10
2018-02-16T04:07:04.777Z,56.20
2018-02-16T04:09:33.114Z,56.30
2018-02-16T04:12:01.320Z,56.00
2018-02-16T04:14:29.598Z,56.30
2018-02-16T04:16:57.841Z,56.20
2018-02-16T04:19:26.122Z,55.80
2018-02-16T04:21:55.152Z,56.40
2018-02-16T04:24:23.494Z,56.30
2018-02-16T04:26:52.636Z,56.60
2018-02-16T04:29:20.893Z,56.50
2018-02-16T04:31:49.137Z,56.40
2018-02-16T04:34:19.120Z,56.30
2018-02-16T04:36:47.359Z,56.50
2018-02-16T04:39:15.637Z,56.20
2018-02-16T04:41:43.897Z,56.50
2018-02-16T04:44:12.980Z,56.70
2018-02-16T04:46:42.117Z,56.70
2018-02-16T04:49:10.353Z,56.70
2018-02-16T04:51:39.412Z,56.60
2018-02-16T04:54:07.731Z,56.60
2018-02-16T04:56:36.026Z,56.40
2018-02-16T04:59:04.289Z,56.40
2018-02-16T05:01:33.373Z,56.40
2018-02-16T05:04:02.581Z,56.60
2018-02-16T05:06:31.658Z,56.50
2018-02-16T05:08:59.939Z,56.40
2018-02-16T05:11:28.185Z,56.50
2018-02-16T05:13:56.528Z,56.70
2018-02-16T05:16:24.974Z,56.70
2018-02-16T05:18:53.189Z,56.80
2018-02-16T05:21:21.457Z,56.50
2018-02-16T05:23:49.802Z,56.50
2018-02-16T05:26:18.067Z,56.50
2018-02-16T05:28:46.413Z,56.60
2018-02-16T05:31:14.937Z,56.60
2018-02-16T05:33:43.142Z,56.60
2018-02-16T05:36:11.382Z,56.70
2018-02-16T05:38:39.722Z,56.80
2018-02-16T05:41:07.954Z,56.80
2018-02-16T05:43:36.936Z,56.80
2018-02-16T05:46:05.343Z,56.70
2018-02-16T05:48:33.605Z,56.50
2018-02-16T05:51:01.833Z,56.80
2018-02-16T05:53:31.676Z,56.70
2018-02-16T05:56:00.289Z,56.70
2018-02-16T05:58:28.673Z,56.60
2018-02-16T06:00:56.924Z,56.70
2018-02-16T06:03:26.033Z,56.80
2018-02-16T06:05:54.437Z,56.90
2018-02-16T06:08:22.899Z,57.00
2018-02-16T06:10:51.149Z,56.50
2018-02-16T06:13:19.632Z,56.70
2018-02-16T06:15:47.873Z,56.50
2018-02-16T06:18:16.317Z,56.90
2018-02-16T06:20:44.819Z,56.70
2018-02-16T06:23:13.876Z,56.90
2018-02-16T06:25:47.515Z,56.90
2018-02-16T06:28:17.995Z,56.80
2018-02-16T06:30:46.211Z,56.90
2018-02-16T06:33:14.472Z,56.80
2018-02-16T06:35:42.785Z,56.80
2018-02-16T06:38:11.169Z,56.70
2018-02-16T06:40:39.485Z,57.00
2018-02-16T06:43:08.672Z,57.70
2018-02-16T06:45:37.138Z,57.10
2018-02-16T06:48:05.580Z,57.00
2018-02-16T06:50:33.853Z,57.00
2018-02-16T06:53:02.093Z,57.00
2018-02-16T06:55:31.204Z,57.80
2018-02-16T06:58:00.236Z,57.60
2018-02-16T07:00:28.564Z,57.70
2018-02-16T07:02:57.753Z,57.00
2018-02-16T07:05:25.993Z,57.10
2018-02-16T07:07:54.517Z,56.90
2018-02-16T07:10:22.814Z,57.00
2018-02-16T07:12:51.121Z,57.10
2018-02-16T07:15:21.708Z,57.00
2018-02-16T07:17:50.278Z,57.10
2018-02-16T07:20:21.440Z,57.10
2018-02-16T07:22:49.680Z,57.50
2018-02-16T07:25:18.037Z,56.70
2018-02-16T07:27:46.289Z,56.80
2018-02-16T07:30:15.163Z,56.70
2018-02-16T07:32:43.506Z,56.70
2018-02-16T07:35:11.796Z,56.80
2018-02-16T07:37:41.620Z,57.00
2018-02-16T07:40:10.748Z,57.00
2018-02-16T07:42:39.102Z,57.10
2018-02-16T07:45:08.202Z,57.10
2018-02-16T07:47:36.501Z,56.90
2018-02-16T07:50:04.740Z,57.10
2018-02-16T07:52:34.098Z,57.30
2018-02-16T07:55:02.412Z,57.30
2018-02-16T07:57:30.622Z,57.30
2018-02-16T07:59:58.921Z,57.40
2018-02-16T08:02:27.189Z,57.20
2018-02-16T08:04:55.427Z,57.20
2018-02-16T08:07:24.538Z,57.50
2018-02-16T08:09:52.844Z,57.20
2018-02-16T08:12:21.935Z,57.60
2018-02-16T08:14:50.196Z,57.60
2018-02-16T08:17:18.438Z,57.50
2018-02-16T08:19:47.555Z,58.60
2018-02-16T08:22:16.971Z,57.80
2018-02-16T08:24:46.703Z,57.60
2018-02-16T08:27:15.061Z,57.60
2018-02-16T08:29:43.313Z,57.80
2018-02-16T08:32:12.478Z,57.90
2018-02-16T08:34:40.722Z,57.60
2018-02-16T08:37:08.972Z,57.80
2018-02-16T08:39:37.264Z,57.70
2018-02-16T08:42:05.603Z,57.70
2018-02-16T08:44:33.902Z,58.00
2018-02-16T08:47:03.125Z,57.80
2018-02-16T08:49:31.674Z,57.60
2018-02-16T08:52:00.789Z,57.90
2018-02-16T08:54:29.030Z,57.70
2018-02-16T08:56:58.060Z,58.00
2018-02-16T08:59:28.040Z,58.50
2018-02-16T09:01:56.280Z,58.10
2018-02-16T09:04:24.545Z,57.80
2018-02-16T09:06:52.905Z,58.00
2018-02-16T09:09:21.272Z,58.00
2018-02-16T09:11:50.446Z,57.90
2018-02-16T09:14:21.186Z,58.10
2018-02-16T09:16:49.924Z,57.90
2018-02-16T09:19:18.194Z,57.80
2018-02-16T09:21:46.529Z,57.90
2018-02-16T09:24:14.748Z,58.60
2018-02-16T09:26:43.107Z,58.00
2018-02-16T09:29:11.455Z,57.70
2018-02-16T09:31:39.952Z,57.60
2018-02-16T09:34:08.328Z,57.30
2018-02-16T09:36:41.921Z,57.50
2018-02-16T09:39:12.119Z,57.30
2018-02-16T09:41:40.621Z,57.50
2018-02-16T09:44:09.144Z,57.00
2018-02-16T09:46:37.392Z,57.30
2018-02-16T09:49:06.505Z,57.00
2018-02-16T09:51:34.892Z,57.00
2018-02-16T09:54:03.126Z,57.10
2018-02-16T09:56:31.374Z,57.20
2018-02-16T09:58:59.736Z,57.20
2018-02-16T10:01:28.068Z,57.10
2018-02-16T10:03:56.311Z,57.20
2018-02-16T10:06:24.568Z,56.80
2018-02-16T10:08:52.836Z,57.10
2018-02-16T10:11:21.124Z,57.10
2018-02-16T10:13:49.545Z,57.20
2018-02-16T10:16:18.692Z,57.10
2018-02-16T10:18:46.950Z,56.90
2018-02-16T10:21:15.194Z,57.00
2018-02-16T10:23:45.930Z,57.10
2018-02-16T10:26:14.207Z,57.20
2018-02-16T10:28:42.461Z,57.00
2018-02-16T10:31:10.724Z,57.10
2018-02-16T10:33:39.023Z,57.00
2018-02-16T10:36:07.474Z,56.80
2018-02-16T10:38:35.893Z,56.70
2018-02-16T10:41:05.192Z,57.20
2018-02-16T10:43:33.499Z,56.80
2018-02-16T10:46:01.843Z,56.90
2018-02-16T10:48:30.073Z,56.50
2018-02-16T10:50:59.121Z,56.30
2018-02-16T10:53:28.238Z,56.30
2018-02-16T10:55:56.758Z,56.20
2018-02-16T10:58:25.192Z,56.30
2018-02-16T11:00:59.920Z,56.40
2018-02-16T11:03:33.884Z,56.40
2018-02-16T11:06:02.453Z,56.50
2018-02-16T11:11:35.799Z,56.00
2018-02-16T11:14:04.032Z,55.70
2018-02-16T11:16:32.308Z,56.70
2018-02-16T11:19:00.541Z,56.20
2018-02-16T11:21:29.328Z,55.70
2018-02-16T11:23:57.604Z,55.60
2018-02-16T11:26:27.417Z,55.60
2018-02-16T11:28:55.750Z,55.60
2018-02-16T11:31:23.997Z,55.10
2018-02-16T11:33:52.265Z,55.20
2018-02-16T11:36:21.370Z,54.60
2018-02-16T11:38:49.617Z,54.20
2018-02-16T11:41:18.524Z,54.50
2018-02-16T11:43:46.786Z,53.80
2018-02-16T11:46:15.105Z,53.70
2018-02-16T11:48:43.334Z,54.00
2018-02-16T11:51:11.644Z,53.60
2018-02-16T11:53:40.100Z,53.70
2018-02-16T11:56:08.393Z,53.60
2018-02-16T11:58:37.453Z,53.10
2018-02-16T12:01:05.761Z,52.90
2018-02-16T12:03:34.016Z,52.60
2018-02-16T12:06:02.259Z,52.80
2018-02-16T12:08:32.205Z,52.40
2018-02-16T12:11:00.442Z,52.50
2018-02-16T12:13:28.711Z,52.40
2018-02-16T12:15:56.991Z,52.10
2018-02-16T12:18:25.254Z,52.10
2018-02-16T12:20:53.522Z,51.80
2018-02-16T12:23:21.863Z,51.30
2018-02-16T12:25:50.065Z,51.00
2018-02-16T12:28:19.097Z,51.10
2018-02-16T12:30:47.356Z,51.10
2018-02-16T12:33:15.701Z,50.60
2018-02-16T12:35:45.418Z,50.40
2018-02-16T12:38:14.430Z,50.20
2018-02-16T12:40:42.813Z,50.20
2018-02-16T12:43:11.107Z,50.20
2018-02-16T12:45:39.364Z,49.80
2018-02-16T12:48:07.700Z,49.30
2018-02-16T12:50:36.794Z,49.10
2018-02-16T12:53:05.058Z,48.90
2018-02-16T12:55:33.289Z,48.90
2018-02-16T12:58:01.551Z,48.30
2018-02-16T13:00:31.513Z,48.00
2018-02-16T13:02:59.743Z,48.10
2018-02-16T13:05:28.808Z,48.10
2018-02-16T13:07:57.052Z,47.40
2018-02-16T13:10:25.288Z,47.60
2018-02-16T13:12:54.390Z,46.90
2018-02-16T13:15:22.793Z,46.80
2018-02-16T13:17:51.255Z,46.70
2018-02-16T13:20:19.619Z,46.70
2018-02-16T13:22:48.184Z,46.60
2018-02-16T13:25:16.457Z,46.60
2018-02-16T13:27:46.424Z,46.40
2018-02-16T13:30:19.502Z,46.60
2018-02-16T13:32:47.772Z,46.20
2018-02-16T13:35:16.238Z,46.30
2018-02-16T13:37:44.450Z,46.10
2018-02-16T13:40:12.805Z,46.30
2018-02-16T13:42:41.046Z,45.90
2018-02-16T13:45:10.174Z,45.60
2018-02-16T13:47:38.437Z,45.60
2018-02-16T13:50:07.569Z,45.20
2018-02-16T13:52:35.823Z,45.30
2018-02-16T13:55:05.190Z,44.70
2018-02-16T13:57:35.121Z,44.30
2018-02-16T14:00:03.390Z,44.20
2018-02-16T14:02:31.690Z,43.60
2018-02-16T14:05:00.818Z,43.70
2018-02-16T14:07:29.050Z,43.70
2018-02-16T14:09:57.345Z,43.30
2018-02-16T14:12:25.769Z,43.40
2018-02-16T14:14:54.022Z,43.40
2018-02-16T14:17:22.308Z,43.40
2018-02-16T14:19:50.573Z,45.60
2018-02-16T14:22:24.788Z,44.10
2018-02-16T14:24:53.124Z,42.30
2018-02-16T14:27:21.439Z,42.60
2018-02-16T14:29:49.787Z,43.30
2018-02-16T14:32:18.602Z,42.70
2018-02-16T14:34:46.850Z,42.30
2018-02-16T14:37:16.039Z,41.50
2018-02-16T14:39:44.353Z,41.40
2018-02-16T14:42:12.726Z,41.50
2018-02-16T14:44:40.993Z,42.50
2018-02-16T14:47:10.074Z,43.60
2018-02-16T14:49:38.363Z,43.60
2018-02-16T14:52:07.533Z,43.30
2018-02-16T14:54:35.789Z,43.10
2018-02-16T14:57:04.125Z,42.50
2018-02-16T14:59:32.374Z,42.00
2018-02-16T15:02:00.649Z,41.90
2018-02-16T15:04:28.979Z,41.00
2018-02-16T15:06:57.454Z,40.90
2018-02-16T15:09:25.847Z,41.30
2018-02-16T15:11:54.103Z,41.50
2018-02-16T15:14:22.378Z,41.30
2018-02-16T15:16:50.626Z,41.40
2018-02-16T15:19:18.856Z,41.40
2018-02-16T15:21:47.237Z,41.00
2018-02-16T15:24:16.272Z,40.80
2018-02-16T15:26:44.550Z,40.60
2018-02-16T15:29:12.824Z,40.90
2018-02-16T15:31:41.054Z,41.20
2018-02-16T15:34:09.370Z,40.80
2018-02-16T15:36:38.385Z,40.90
2018-02-16T15:39:06.740Z,40.80
2018-02-16T15:41:35.032Z,40.80
2018-02-16T15:44:04.265Z,40.80
2018-02-16T15:46:32.898Z,40.70
2018-02-16T15:49:01.273Z,40.20
2018-02-16T15:51:29.624Z,40.90
2018-02-16T15:53:57.871Z,40.90
2018-02-16T15:56:26.097Z,39.90
2018-02-16T15:58:54.416Z,40.60
2018-02-16T16:01:23.484Z,40.90
2018-02-16T16:03:52.497Z,40.80
2018-02-16T16:06:21.574Z,40.90
2018-02-16T16:08:49.846Z,40.90
2018-02-16T16:11:18.228Z,40.80
2018-02-16T16:13:46.830Z,40.50
2018-02-16T16:16:15.143Z,40.90
2018-02-16T16:18:43.473Z,40.90
2018-02-16T16:21:12.701Z,40.60
2018-02-16T16:23:41.751Z,40.50
2018-02-16T16:26:09.986Z,40.60
2018-02-16T16:28:38.998Z,39.60
2018-02-16T16:31:07.313Z,40.20
2018-02-16T16:33:35.614Z,40.30
2018-02-16T16:36:03.871Z,40.00
2018-02-16T16:38:32.980Z,40.40
2018-02-16T16:41:01.231Z,40.50
2018-02-16T16:43:29.546Z,39.40
2018-02-16T16:45:57.885Z,40.20
2018-02-16T16:48:26.938Z,39.70
2018-02-16T16:50:55.265Z,39.30
2018-02-16T16:53:24.352Z,39.60
2018-02-16T16:55:52.639Z,39.30
2018-02-16T16:58:20.869Z,39.30
2018-02-16T17:00:49.127Z,39.20
2018-02-16T17:03:17.492Z,38.80
2018-02-16T17:05:45.730Z,38.80
2018-02-16T17:08:13.985Z,38.70
2018-02-16T17:10:42.272Z,39.60
2018-02-16T17:13:10.704Z,38.80
2018-02-16T17:15:38.936Z,39.40
2018-02-16T17:18:07.198Z,39.60
2018-02-16T17:20:36.269Z,40.30
2018-02-16T17:23:04.517Z,40.40
2018-02-16T17:25:32.869Z,40.80
2018-02-16T17:28:01.974Z,40.60
2018-02-16T17:30:31.151Z,41.00
2018-02-16T17:32:59.356Z,40.80
2018-02-16T17:35:27.637Z,41.00
2018-02-16T17:37:55.912Z,41.00
2018-02-16T17:40:24.992Z,41.60
2018-02-16T17:42:53.326Z,41.60
2018-02-16T17:45:21.566Z,41.60
2018-02-16T17:47:49.817Z,41.70
2018-02-16T17:50:18.921Z,42.00
2018-02-16T17:52:48.029Z,41.60
2018-02-16T17:55:16.287Z,41.70
2018-02-16T17:57:46.114Z,41.70
2018-02-16T18:00:14.701Z,41.70
2018-02-16T18:02:42.964Z,41.90
2018-02-16T18:05:12.928Z,42.20
2018-02-16T18:07:41.646Z,42.00
2018-02-16T18:10:09.873Z,42.10
2018-02-16T18:12:38.145Z,42.40
2018-02-16T18:15:06.373Z,42.30
2018-02-16T18:17:36.481Z,42.70
2018-02-16T18:20:05.706Z,42.60
2018-02-16T18:22:34.722Z,42.90
2018-02-16T18:25:02.990Z,42.90
2018-02-16T18:27:32.120Z,43.30
2018-02-16T18:30:00.413Z,43.20
2018-02-16T18:32:28.671Z,43.30
2018-02-16T18:34:57.398Z,43.40
2018-02-16T18:37:25.673Z,43.50
2018-02-16T18:39:53.965Z,43.60
2018-02-16T18:42:22.248Z,43.50
2018-02-16T18:44:51.246Z,43.80
2018-02-16T18:47:19.500Z,43.60
2018-02-16T18:49:48.571Z,43.90
2018-02-16T18:52:16.840Z,43.60
2018-02-16T18:54:45.072Z,43.60
2018-02-16T18:57:13.344Z,43.70
2018-02-16T18:59:42.571Z,44.00
2018-02-16T19:02:10.908Z,44.00
2018-02-16T19:04:39.199Z,44.00
2018-02-16T19:07:08.310Z,44.30
2018-02-16T19:09:36.575Z,44.10
2018-02-16T19:12:04.921Z,44.10
2018-02-16T19:14:33.942Z,44.40
2018-02-16T19:17:02.243Z,44.20
2018-02-16T19:19:31.297Z,44.60
2018-02-16T19:22:00.336Z,44.60
2018-02-16T19:24:28.677Z,44.70
2018-02-16T19:26:57.864Z,44.90
2018-02-16T19:29:26.186Z,44.80
2018-02-16T19:31:54.516Z,44.90
2018-02-16T19:34:23.530Z,45.50
2018-02-16T19:36:52.192Z,45.20
2018-02-16T19:39:20.482Z,45.20
2018-02-16T19:41:48.748Z,45.50
2018-02-16T19:44:18.453Z,45.60
2018-02-16T19:46:46.766Z,45.50
2018-02-16T19:49:15.771Z,45.70
2018-02-16T19:51:44.510Z,45.50
2018-02-16T19:54:13.513Z,45.40
2018-02-16T19:56:42.651Z,45.60
2018-02-16T19:59:10.894Z,45.70
2018-02-16T20:01:39.769Z,45.70
2018-02-16T20:04:08.053Z,45.80
2018-02-16T20:06:36.718Z,45.80
2018-02-16T20:09:09.721Z,46.10
2018-02-16T20:11:38.427Z,46.30
2018-02-16T20:14:06.823Z,46.30
2018-02-16T20:16:36.797Z,46.50
2018-02-16T20:19:06.535Z,46.50
2018-02-16T20:21:36.646Z,46.50
2018-02-16T20:24:05.254Z,46.60
2018-02-16T20:26:35.024Z,46.60
2018-02-16T20:29:03.914Z,46.40
2018-02-16T20:31:32.804Z,46.50
2018-02-16T20:34:01.490Z,46.50
2018-02-16T20:36:29.774Z,46.80
2018-02-16T20:38:58.050Z,46.70
2018-02-16T20:41:26.330Z,47.10
2018-02-16T20:43:54.599Z,47.20
2018-02-16T20:46:23.282Z,47.30
2018-02-16T20:48:51.770Z,47.20
2018-02-16T20:51:20.792Z,47.20
2018-02-16T20:53:50.792Z,47.50
2018-02-16T20:56:19.257Z,47.20
2018-02-16T20:58:47.466Z,47.50
2018-02-16T21:01:15.742Z,47.50
2018-02-16T21:03:43.998Z,47.40
2018-02-16T21:06:13.241Z,47.50
2018-02-16T21:08:41.559Z,47.30
2018-02-16T21:11:09.862Z,47.40
2018-02-16T21:13:38.217Z,47.40
2018-02-16T21:16:06.444Z,47.80
2018-02-16T21:18:34.726Z,47.90
2018-02-16T21:21:02.965Z,47.80
2018-02-16T21:23:31.239Z,47.90
2018-02-16T21:25:59.637Z,47.70
2018-02-16T21:28:27.945Z,48.10
2018-02-16T21:30:56.205Z,48.00
2018-02-16T21:33:24.464Z,48.30
2018-02-16T21:35:52.833Z,48.10
2018-02-16T21:38:21.249Z,48.20
2018-02-16T21:40:50.217Z,48.40
2018-02-16T21:43:18.479Z,48.40
2018-02-16T21:45:46.752Z,48.30
2018-02-16T21:48:15.047Z,48.20
2018-02-16T21:50:43.426Z,48.10
2018-02-16T21:53:11.764Z,48.40
2018-02-16T21:55:40.024Z,48.30
2018-02-16T21:58:08.325Z,48.20
2018-02-16T22:00:36.590Z,48.60
2018-02-16T22:03:04.812Z,48.30
2018-02-16T22:05:33.235Z,48.30
2018-02-16T22:08:01.511Z,48.40
2018-02-16T22:10:29.802Z,48.40
2018-02-16T22:13:00.665Z,48.80
2018-02-16T22:15:28.888Z,49.10
2018-02-16T22:17:57.305Z,49.00
2018-02-16T22:20:25.543Z,49.10
2018-02-16T22:22:53.790Z,49.00
2018-02-16T22:25:22.209Z,49.10
2018-02-16T22:27:50.515Z,49.20
2018-02-16T22:30:19.685Z,49.40
2018-02-16T22:32:47.900Z,49.40
2018-02-16T22:35:16.942Z,49.00
2018-02-16T22:37:45.292Z,49.00
2018-02-16T22:40:13.569Z,49.20
2018-02-16T22:42:41.799Z,49.30
2018-02-16T22:45:11.253Z,49.40
2018-02-16T22:47:40.548Z,49.30
2018-02-16T22:50:08.885Z,49.30
2018-02-16T22:52:37.909Z,49.30
2018-02-16T22:55:06.257Z,49.40
2018-02-16T22:57:35.435Z,49.70
2018-02-16T23:00:03.769Z,49.60
2018-02-16T23:02:32.020Z,49.70
2018-02-16T23:05:00.546Z,49.70
2018-02-16T23:07:28.780Z,49.60
2018-02-16T23:09:57.790Z,49.70
2018-02-16T23:12:26.399Z,49.70
2018-02-16T23:14:54.712Z,49.70
2018-02-16T23:17:22.924Z,49.80
2018-02-16T23:19:51.189Z,49.60
2018-02-16T23:22:20.187Z,49.80
2018-02-16T23:24:48.470Z,49.80
2018-02-16T23:27:16.833Z,50.00
2018-02-16T23:29:45.142Z,50.10
2018-02-16T23:32:13.393Z,50.30
2018-02-16T23:34:42.560Z,50.20
2018-02-16T23:37:10.806Z,50.30
2018-02-16T23:39:39.089Z,50.20
2018-02-16T23:42:07.319Z,50.30
2018-02-16T23:44:35.522Z,50.30
2018-02-16T23:47:03.755Z,50.20
2018-02-16T23:49:32.066Z,50.20
2018-02-16T23:52:00.305Z,50.40
2018-02-16T23:54:28.577Z,50.40
2018-02-16T23:56:56.844Z,50.50
2018-02-16T23:59:25.111Z,50.40
